Time;durP1;ratioP1;P1;durP2;ratioP2;P2;SDS_P1;SDS_P2;PMS_P1;PMS_P2;Temp;Humidity;BMP_temperature;BMP_pressure;BME280_temperature;BME280_humidity;BME280_pressure;Samples;Min_cycle;Max_cycle;Signal;HPM_P1;HPM_P2
2024/01/03 00:00:25;;;;;;;4.97;1.30;;;8.60;99.90;;;;;;5011176;28;20049;-85
2024/01/03 00:02:51;;;;;;;4.55;1.40;;;8.50;99.90;;;;;;5007730;28;20057;-83
2024/01/03 00:05:37;;;;;;;6.68;1.40;;;8.50;99.90;;;;;;5026630;28;20041;-84
2024/01/03 00:08:25;;;;;;;7.03;1.40;;;8.50;99.90;;;;;;5011006;28;20052;-84
2024/01/03 00:11:01;;;;;;;10.60;1.77;;;8.50;99.90;;;;;;4993095;28;20046;-83
2024/01/03 00:13:33;;;;;;;8.68;2.08;;;8.50;99.90;;;;;;4988042;28;20041;-84
2024/01/03 00:16:18;;;;;;;6.45;1.30;;;8.50;99.90;;;;;;5007456;28;20063;-84
2024/01/03 00:18:51;;;;;;;5.43;1.40;;;8.50;99.90;;;;;;5027994;28;20555;-85
2024/01/03 00:21:23;;;;;;;;;;;8.50;99.90;;;;;;4995296;28;20041;-85
2024/01/03 00:24:03;;;;;;;4.65;1.13;;;8.40;99.90;;;;;;4994478;28;19975;-83
2024/01/03 00:26:32;;;;;;;3.38;1.10;;;8.40;99.90;;;;;;5010898;28;20128;-86
2024/01/03 00:28:58;;;;;;;3.53;1.08;;;8.30;99.90;;;;;;5011390;28;20553;-83
2024/01/03 00:31:29;;;;;;;4.70;1.30;;;8.30;99.90;;;;;;5011446;28;20456;-84
2024/01/03 00:33:56;;;;;;;5.95;1.50;;;8.30;99.90;;;;;;5021563;28;20041;-84
2024/01/03 00:36:21;;;;;;;4.60;1.20;;;8.50;99.90;;;;;;5047554;28;20083;-86
2024/01/03 00:38:47;;;;;;;4.28;1.40;;;8.30;99.90;;;;;;5046940;28;20112;-84
2024/01/03 00:41:13;;;;;;;11.05;1.23;;;8.80;99.90;;;;;;5043386;28;20045;-83
2024/01/03 00:43:39;;;;;;;7.80;1.60;;;8.30;99.90;;;;;;5011134;28;20171;-85
2024/01/03 00:46:08;;;;;;;4.30;1.45;;;8.80;99.90;;;;;;5011057;28;20079;-85
2024/01/03 00:48:34;;;;;;;6.07;1.40;;;8.40;99.90;;;;;;4993963;28;20049;-83
2024/01/03 00:51:01;;;;;;;5.63;1.25;;;8.40;99.90;;;;;;5010617;28;20053;-86
2024/01/03 00:53:27;;;;;;;7.40;1.30;;;8.40;99.90;;;;;;5010099;28;20686;-82
2024/01/03 00:55:53;;;;;;;5.25;1.42;;;8.40;99.90;;;;;;5028308;28;20049;-85
2024/01/03 00:58:19;;;;;;;7.22;1.58;;;8.60;99.90;;;;;;4993906;28;20514;-83
2024/01/03 01:00:46;;;;;;;9.40;1.70;;;8.20;99.90;;;;;;5010443;28;20072;-84
2024/01/03 01:03:12;;;;;;;9.68;1.70;;;8.20;99.90;;;;;;5009929;28;20049;-83
2024/01/03 01:05:39;;;;;;;5.50;1.63;;;8.20;99.90;;;;;;5010747;28;20052;-83
2024/01/03 01:08:05;;;;;;;6.07;1.40;;;8.20;99.90;;;;;;5006577;28;20046;-85
2024/01/03 01:10:30;;;;;;;8.15;1.38;;;8.20;99.90;;;;;;5041963;28;20046;-84
2024/01/03 01:12:56;;;;;;;5.22;1.95;;;8.30;99.90;;;;;;5030311;28;20055;-84
2024/01/03 01:15:22;;;;;;;8.07;1.60;;;8.20;99.90;;;;;;5015975;28;20049;-84
2024/01/03 01:17:49;;;;;;;10.00;1.60;;;8.20;99.90;;;;;;5028170;28;20107;-85
2024/01/03 01:20:14;;;;;;;8.75;1.50;;;8.20;99.90;;;;;;4992565;28;20114;-85
2024/01/03 01:22:40;;;;;;;7.32;1.73;;;8.30;99.90;;;;;;4993856;28;20061;-84
2024/01/03 01:25:06;;;;;;;5.40;1.30;;;8.20;99.90;;;;;;5028068;28;20080;-84
2024/01/03 01:27:32;;;;;;;5.57;1.35;;;8.30;99.90;;;;;;5017739;28;20060;-83
2024/01/03 01:29:57;;;;;;;5.38;1.10;;;8.30;99.90;;;;;;5010541;28;20045;-84
2024/01/03 01:32:24;;;;;;;8.27;1.30;;;8.30;99.90;;;;;;5010742;28;20049;-84
2024/01/03 01:34:49;;;;;;;6.82;1.25;;;8.30;99.90;;;;;;5003697;28;20051;-83
2024/01/03 01:37:15;;;;;;;6.43;1.30;;;8.30;99.90;;;;;;4992992;28;20045;-83
2024/01/03 01:39:44;;;;;;;6.18;1.15;;;8.30;99.90;;;;;;5010534;28;20049;-84
2024/01/03 01:42:10;;;;;;;7.85;1.30;;;8.70;99.90;;;;;;5009595;28;20503;-83
2024/01/03 01:44:35;;;;;;;4.75;1.85;;;8.30;99.90;;;;;;4993753;28;20037;-83
2024/01/03 01:47:01;;;;;;;8.75;1.92;;;8.30;99.90;;;;;;5010188;28;20499;-84
2024/01/03 01:49:27;;;;;;;5.78;1.40;;;8.30;99.90;;;;;;4993988;28;20075;-83
2024/01/03 01:51:53;;;;;;;11.45;1.40;;;8.40;99.90;;;;;;5009022;28;20049;-83
2024/01/03 01:54:20;;;;;;;5.38;1.50;;;8.40;99.90;;;;;;5009398;28;20045;-83
2024/01/03 01:56:47;;;;;;;4.18;1.40;;;8.80;99.90;;;;;;4993517;28;20053;-84
2024/01/03 01:59:14;;;;;;;7.57;2.08;;;8.40;99.90;;;;;;5009713;28;20511;-84
2024/01/03 02:01:40;;;;;;;7.00;1.70;;;8.40;99.90;;;;;;5009335;28;20096;-83
2024/01/03 02:04:08;;;;;;;5.15;1.23;;;8.50;99.90;;;;;;5009968;28;20072;-83
2024/01/03 02:06:36;;;;;;;7.82;2.03;;;8.50;99.90;;;;;;4995417;28;20049;-82
2024/01/03 02:09:05;;;;;;;4.70;1.35;;;8.40;99.90;;;;;;4997413;28;20049;-82
2024/01/03 02:11:31;;;;;;;5.15;1.83;;;8.70;99.90;;;;;;4997483;28;20099;-83
2024/01/03 02:13:57;;;;;;;6.38;1.48;;;8.60;99.90;;;;;;4997574;28;20053;-83
2024/01/03 02:16:22;;;;;;;5.43;0.98;;;9.00;99.90;;;;;;5013609;28;20046;-85
2024/01/03 02:18:49;;;;;;;4.70;1.13;;;8.60;99.90;;;;;;5014049;28;20045;-83
2024/01/03 02:21:16;;;;;;;5.28;1.05;;;9.10;99.90;;;;;;5011036;28;20080;-82
2024/01/03 02:23:45;;;;;;;4.35;1.00;;;8.70;99.90;;;;;;4995707;28;20384;-83
2024/01/03 02:26:10;;;;;;;5.15;1.13;;;8.70;99.90;;;;;;5012531;28;20506;-83
2024/01/03 02:28:39;;;;;;;1.65;1.02;;;8.70;99.90;;;;;;5033622;28;20092;-83
2024/01/03 02:31:05;;;;;;;2.58;1.17;;;8.70;99.90;;;;;;5031052;28;20483;-84
2024/01/03 02:33:30;;;;;;;4.47;1.40;;;8.70;99.90;;;;;;4996649;28;20103;-82
2024/01/03 02:35:56;;;;;;;5.55;1.00;;;8.70;99.90;;;;;;5030759;28;20095;-82
2024/01/03 02:38:22;;;;;;;4.57;1.42;;;8.80;99.90;;;;;;5028457;28;20056;-84
2024/01/03 02:40:50;;;;;;;5.38;1.23;;;9.10;99.90;;;;;;5012827;28;20086;-83
2024/01/03 02:43:15;;;;;;;2.80;0.98;;;8.70;99.90;;;;;;4996900;28;20460;-83
2024/01/03 02:45:41;;;;;;;8.35;1.08;;;8.80;99.90;;;;;;5012651;28;20052;-83
2024/01/03 02:48:07;;;;;;;2.72;1.02;;;8.80;99.90;;;;;;5013297;28;20083;-83
2024/01/03 02:50:32;;;;;;;2.53;0.82;;;8.70;99.90;;;;;;5012883;28;20128;-82
2024/01/03 02:52:59;;;;;;;2.00;0.77;;;8.70;99.90;;;;;;5011746;28;20053;-82
2024/01/03 02:55:24;;;;;;;4.22;0.80;;;9.00;99.90;;;;;;5012402;28;20041;-82
2024/01/03 02:57:50;;;;;;;2.03;0.63;;;8.80;99.90;;;;;;5029075;28;20044;-83
2024/01/03 03:00:16;;;;;;;2.70;0.68;;;8.60;99.90;;;;;;4996096;28;20077;-84
2024/01/03 03:02:41;;;;;;;2.13;0.80;;;8.50;99.90;;;;;;4996602;28;20065;-83
2024/01/03 03:05:07;;;;;;;0.77;0.50;;;8.40;99.90;;;;;;5012656;28;20045;-82
2024/01/03 03:07:34;;;;;;;2.53;0.80;;;8.40;99.90;;;;;;4995877;28;20825;-85
2024/01/03 03:10:01;;;;;;;3.05;0.50;;;8.30;99.90;;;;;;5013496;28;20049;-83
2024/01/03 03:12:26;;;;;;;3.33;0.50;;;8.30;99.90;;;;;;5012987;28;20348;-83
2024/01/03 03:14:52;;;;;;;2.15;0.60;;;8.30;99.90;;;;;;5012388;28;20046;-85
2024/01/03 03:17:17;;;;;;;1.58;0.50;;;8.20;99.90;;;;;;5011406;28;20072;-83
2024/01/03 03:19:43;;;;;;;1.83;0.50;;;8.20;99.90;;;;;;5012711;28;20037;-84
2024/01/03 03:22:09;;;;;;;3.47;0.50;;;8.10;99.90;;;;;;4994963;28;20037;-84
2024/01/03 03:24:34;;;;;;;0.93;0.68;;;8.20;99.90;;;;;;5010303;28;20483;-83
2024/01/03 03:27:00;;;;;;;2.95;0.95;;;8.20;99.90;;;;;;5012275;28;20162;-84
2024/01/03 03:29:25;;;;;;;3.22;0.60;;;8.10;99.90;;;;;;5029470;28;20041;-86
2024/01/03 03:31:51;;;;;;;1.42;0.70;;;8.10;99.90;;;;;;4994734;28;20033;-82
2024/01/03 03:34:17;;;;;;;2.20;0.57;;;8.10;99.90;;;;;;4995487;28;20057;-83
2024/01/03 03:36:44;;;;;;;1.23;0.50;;;8.10;99.90;;;;;;4994803;28;20051;-85
2024/01/03 03:39:09;;;;;;;1.42;0.55;;;8.10;99.90;;;;;;5027768;28;20124;-83
2024/01/03 03:41:36;;;;;;;2.67;0.77;;;8.70;99.90;;;;;;5029228;28;20128;-85
2024/01/03 03:44:05;;;;;;;1.27;0.60;;;8.10;99.90;;;;;;5007230;28;20053;-85
2024/01/03 03:46:30;;;;;;;2.67;0.70;;;8.20;99.90;;;;;;5028558;28;20038;-83
2024/01/03 03:48:56;;;;;;;3.75;0.70;;;8.20;99.90;;;;;;5028889;28;20068;-83
2024/01/03 03:51:22;;;;;;;1.50;0.82;;;8.20;99.90;;;;;;4995180;28;20415;-83
2024/01/03 03:53:48;;;;;;;6.05;1.73;;;8.30;99.90;;;;;;4994462;28;20041;-83
2024/01/03 03:56:26;;;;;;;14.38;2.65;;;8.30;99.90;;;;;;4995039;28;20116;-82
2024/01/03 03:58:52;;;;;;;11.65;2.25;;;8.40;99.90;;;;;;4994950;28;20049;-83
2024/01/03 04:01:18;;;;;;;11.93;2.70;;;8.40;99.90;;;;;;5010681;28;20052;-86
2024/01/03 04:03:44;;;;;;;22.15;3.13;;;8.50;99.90;;;;;;5010283;28;20038;-83
2024/01/03 04:06:12;;;;;;;21.25;3.22;;;8.50;99.90;;;;;;5010268;28;20133;-84
2024/01/03 04:08:40;;;;;;;14.35;2.70;;;8.50;99.90;;;;;;4993290;28;20077;-83
2024/01/03 04:11:09;;;;;;;15.48;3.33;;;8.60;99.90;;;;;;5011225;28;20048;-84
2024/01/03 04:13:36;;;;;;;20.83;3.20;;;8.70;99.90;;;;;;5010998;28;20049;-83
2024/01/03 04:16:05;;;;;;;13.13;3.05;;;8.70;99.90;;;;;;5028250;28;20057;-83
2024/01/03 04:18:30;;;;;;;14.10;2.40;;;8.80;99.90;;;;;;5010786;28;20489;-83
2024/01/03 04:20:56;;;;;;;14.88;2.58;;;8.80;99.90;;;;;;4993942;28;20132;-82
2024/01/03 04:23:21;;;;;;;15.82;2.65;;;8.90;99.90;;;;;;5010130;28;20045;-85
2024/01/03 04:25:47;;;;;;;13.65;2.60;;;8.90;99.90;;;;;;5028652;28;20770;-84
2024/01/03 04:28:13;;;;;;;16.17;4.07;;;9.30;99.90;;;;;;4996420;28;20076;-82
2024/01/03 04:30:38;;;;;;;14.02;2.55;;;8.90;99.90;;;;;;5011042;28;20118;-84
2024/01/03 04:33:05;;;;;;;17.23;2.85;;;8.90;99.90;;;;;;5027855;28;20422;-84
2024/01/03 04:35:31;;;;;;;13.27;3.15;;;9.00;99.90;;;;;;4994083;28;20530;-84
2024/01/03 04:38:02;;;;;;;18.65;2.80;;;9.00;99.90;;;;;;5009778;28;20077;-83
2024/01/03 04:40:29;;;;;;;19.83;3.35;;;8.90;99.90;;;;;;4999268;28;20124;-83
2024/01/03 04:42:54;;;;;;;12.82;3.25;;;9.00;99.90;;;;;;5026987;28;20046;-85
2024/01/03 04:45:20;;;;;;;13.00;2.92;;;9.00;99.90;;;;;;5027254;28;20099;-84
2024/01/03 04:47:46;;;;;;;16.33;2.85;;;9.00;99.90;;;;;;5028569;28;20041;-85
2024/01/03 04:50:11;;;;;;;15.10;3.13;;;9.00;99.90;;;;;;5016269;28;20054;-84
2024/01/03 04:52:38;;;;;;;12.30;3.30;;;9.00;99.90;;;;;;5005075;28;20467;-84
2024/01/03 04:55:04;;;;;;;13.45;2.67;;;9.00;99.90;;;;;;5028233;28;20045;-84
2024/01/03 04:57:34;;;;;;;20.77;3.17;;;9.00;99.90;;;;;;5027295;28;20511;-85
2024/01/03 04:59:59;;;;;;;18.85;3.53;;;9.10;99.90;;;;;;5010671;28;20053;-85
2024/01/03 05:02:25;;;;;;;20.98;3.33;;;9.10;99.90;;;;;;5011369;28;20057;-84
2024/01/03 05:04:50;;;;;;;17.23;2.97;;;9.20;99.90;;;;;;5007072;28;20053;-84
2024/01/03 05:07:16;;;;;;;20.88;2.90;;;9.10;99.90;;;;;;5014588;28;20053;-84
2024/01/03 05:09:42;;;;;;;15.15;3.72;;;9.20;99.90;;;;;;5017633;28;20445;-84
2024/01/03 05:12:08;;;;;;;19.23;3.33;;;9.20;99.90;;;;;;5010179;28;20376;-84
2024/01/03 05:14:34;;;;;;;17.88;3.42;;;9.30;99.90;;;;;;5027948;28;20041;-83
2024/01/03 05:17:00;;;;;;;20.70;5.03;;;9.30;99.90;;;;;;5009094;28;20049;-83
2024/01/03 05:19:26;;;;;;;14.57;3.88;;;9.30;99.90;;;;;;5027427;28;20196;-84
2024/01/03 05:21:51;;;;;;;16.70;3.25;;;9.40;99.90;;;;;;5009280;28;20041;-85
2024/01/03 05:24:17;;;;;;;17.38;2.88;;;9.40;99.90;;;;;;5009881;28;20049;-82
2024/01/03 05:26:43;;;;;;;16.83;2.97;;;9.50;99.90;;;;;;5010579;28;20041;-83
2024/01/03 05:29:08;;;;;;;15.30;3.50;;;9.40;99.90;;;;;;5011079;28;20038;-82
2024/01/03 05:31:34;;;;;;;15.63;2.58;;;9.40;99.90;;;;;;4994230;28;20045;-84
2024/01/03 05:33:59;;;;;;;14.77;2.83;;;9.40;99.90;;;;;;5011788;28;20059;-83
2024/01/03 05:36:25;;;;;;;14.65;3.15;;;9.40;99.90;;;;;;4994716;28;20471;-83
2024/01/03 05:38:51;;;;;;;22.42;3.30;;;9.40;99.90;;;;;;5010659;28;20046;-84
2024/01/03 05:41:16;;;;;;;16.63;3.33;;;9.40;99.90;;;;;;5012667;28;20053;-83
2024/01/03 05:43:42;;;;;;;16.52;2.50;;;9.40;99.90;;;;;;5001997;28;20372;-83
2024/01/03 05:46:10;;;;;;;14.68;3.22;;;9.40;99.90;;;;;;4998556;28;20041;-83
2024/01/03 05:48:36;;;;;;;18.90;3.47;;;9.40;99.90;;;;;;5014298;28;20041;-83
2024/01/03 05:51:02;;;;;;;14.00;2.97;;;9.40;99.90;;;;;;5014149;28;20113;-83
2024/01/03 05:53:28;;;;;;;15.05;2.83;;;9.40;99.90;;;;;;5014301;28;20052;-82
2024/01/03 05:55:53;;;;;;;16.75;3.63;;;9.40;99.90;;;;;;5013428;28;20049;-83
2024/01/03 05:58:19;;;;;;;15.23;3.17;;;9.30;99.90;;;;;;5014187;28;20095;-83
2024/01/03 06:00:45;;;;;;;13.75;2.58;;;9.30;99.90;;;;;;5014499;28;20415;-83
2024/01/03 06:03:10;;;;;;;20.27;3.13;;;9.30;99.90;;;;;;5031163;28;20541;-82
2024/01/03 06:05:36;;;;;;;16.63;3.58;;;9.30;99.90;;;;;;5013524;28;20100;-83
2024/01/03 06:08:02;;;;;;;13.23;2.65;;;9.30;99.90;;;;;;5013528;28;20057;-83
2024/01/03 06:10:28;;;;;;;23.17;4.57;;;9.30;99.90;;;;;;5013234;28;20049;-83
2024/01/03 06:12:53;;;;;;;12.75;2.58;;;9.30;99.90;;;;;;5010014;28;20056;-82
2024/01/03 06:15:19;;;;;;;17.52;3.10;;;9.30;99.90;;;;;;5017017;28;20796;-82
2024/01/03 06:17:44;;;;;;;13.18;2.50;;;9.30;99.90;;;;;;5033529;28;20422;-84
2024/01/03 06:20:10;;;;;;;14.77;2.95;;;9.30;99.90;;;;;;5014418;28;20132;-84
2024/01/03 06:22:37;;;;;;;7.30;2.05;;;9.30;99.90;;;;;;5032472;28;20053;-83
2024/01/03 06:25:03;;;;;;;10.82;2.17;;;9.40;99.90;;;;;;5004617;28;20495;-84
2024/01/03 06:27:28;;;;;;;15.63;2.72;;;9.40;99.90;;;;;;5028343;28;20171;-84
2024/01/03 06:29:54;;;;;;;10.38;2.10;;;9.40;99.90;;;;;;5031857;28;20045;-84
2024/01/03 06:32:19;;;;;;;13.27;2.40;;;9.40;99.90;;;;;;5029723;28;20510;-84
2024/01/03 06:34:45;;;;;;;13.80;2.63;;;9.40;99.90;;;;;;5030818;28;20139;-84
2024/01/03 06:37:10;;;;;;;15.55;2.78;;;9.30;99.90;;;;;;5013498;28;20041;-84
2024/01/03 06:39:43;;;;;;;21.17;3.13;;;9.20;99.90;;;;;;5030904;28;20056;-83
2024/01/03 06:42:09;;;;;;;13.10;2.92;;;9.10;99.90;;;;;;5013412;28;20104;-86
2024/01/03 06:44:34;;;;;;;14.82;2.78;;;9.00;99.90;;;;;;5012160;28;20143;-86
2024/01/03 06:47:00;;;;;;;11.65;2.53;;;8.90;99.90;;;;;;5012043;28;20037;-84
2024/01/03 06:49:28;;;;;;;16.00;2.97;;;8.90;99.90;;;;;;5011955;28;20045;-84
2024/01/03 06:51:56;;;;;;;17.23;3.10;;;8.80;99.90;;;;;;5012162;28;20053;-83
2024/01/03 06:54:22;;;;;;;13.77;2.95;;;8.80;99.90;;;;;;5013656;28;20041;-83
2024/01/03 06:56:48;;;;;;;17.38;2.63;;;8.80;99.90;;;;;;4979630;28;20123;-83
2024/01/03 06:59:13;;;;;;;19.02;2.97;;;8.80;99.90;;;;;;5009914;28;20511;-83
2024/01/03 07:01:39;;;;;;;17.10;3.28;;;8.80;99.90;;;;;;4985828;28;20052;-82
2024/01/03 07:04:04;;;;;;;16.77;2.60;;;8.80;99.90;;;;;;5011675;28;20084;-83
2024/01/03 07:06:30;;;;;;;12.57;2.70;;;8.80;99.90;;;;;;5012515;28;20491;-82
2024/01/03 07:08:55;;;;;;;14.55;2.70;;;8.80;99.90;;;;;;5012488;28;20049;-83
2024/01/03 07:11:21;;;;;;;17.42;2.88;;;9.00;99.90;;;;;;4994391;28;20049;-84
2024/01/03 07:13:47;;;;;;;15.32;3.10;;;8.80;99.90;;;;;;5016255;28;20427;-82
2024/01/03 07:16:13;;;;;;;18.70;2.80;;;8.80;99.90;;;;;;5032740;28;20057;-83
2024/01/03 07:18:38;;;;;;;9.90;3.00;;;8.90;99.90;;;;;;5032480;28;20048;-82
2024/01/03 07:21:04;;;;;;;18.70;3.10;;;8.90;99.90;;;;;;5048924;28;20094;-82
2024/01/03 07:23:30;;;;;;;12.63;2.33;;;8.90;99.90;;;;;;5014610;28;20036;-82
2024/01/03 07:25:56;;;;;;;15.20;2.72;;;9.00;99.90;;;;;;5048079;28;20052;-83
2024/01/03 07:28:21;;;;;;;11.13;1.98;;;9.00;99.90;;;;;;5001775;28;20100;-83
2024/01/03 07:30:47;;;;;;;14.95;2.85;;;9.40;99.90;;;;;;4995347;28;20029;-83
2024/01/03 07:33:13;;;;;;;9.25;2.17;;;9.00;99.90;;;;;;5012477;28;20549;-83
2024/01/03 07:35:43;;;;;;;15.90;2.53;;;8.70;99.90;;;;;;5012333;28;20045;-82
2024/01/03 07:38:09;;;;;;;18.67;2.88;;;9.10;99.90;;;;;;5011674;28;20059;-83
2024/01/03 07:40:36;;;;;;;19.48;3.33;;;9.30;99.90;;;;;;5011981;28;20107;-83
2024/01/03 07:43:01;;;;;;;18.25;4.05;;;9.10;99.90;;;;;;5029228;28;20442;-83
2024/01/03 07:45:27;;;;;;;20.80;3.60;;;9.10;99.90;;;;;;5029965;28;20108;-86
2024/01/03 07:47:52;;;;;;;16.00;3.67;;;9.00;99.90;;;;;;5012719;28;20049;-83
2024/01/03 07:50:18;;;;;;;17.05;2.70;;;9.00;99.90;;;;;;5029312;28;20524;-84
2024/01/03 07:52:44;;;;;;;16.08;2.95;;;9.00;99.90;;;;;;5011199;28;20045;-83
2024/01/03 07:55:10;;;;;;;13.15;2.55;;;8.70;99.90;;;;;;5011453;28;20052;-83
2024/01/03 07:57:36;;;;;;;13.93;2.28;;;8.90;99.90;;;;;;5011081;28;20045;-82
2024/01/03 08:00:04;;;;;;;17.73;2.55;;;8.90;99.90;;;;;;5011723;28;20129;-82
2024/01/03 08:02:30;;;;;;;16.88;2.75;;;8.50;99.90;;;;;;4995094;28;20045;-85
2024/01/03 08:04:55;;;;;;;9.35;1.70;;;8.90;99.90;;;;;;4994073;28;20064;-83
2024/01/03 08:07:21;;;;;;;12.75;2.25;;;9.00;99.90;;;;;;5028959;28;20061;-84
2024/01/03 08:09:47;;;;;;;9.02;2.20;;;9.00;99.90;;;;;;5011307;28;20041;-83
2024/01/03 08:12:13;;;;;;;8.80;2.20;;;9.00;99.90;;;;;;5010017;28;20053;-83
2024/01/03 08:14:40;;;;;;;14.85;2.38;;;9.10;99.90;;;;;;5010752;28;20045;-84
2024/01/03 08:17:06;;;;;;;11.98;2.45;;;9.00;99.90;;;;;;5011077;28;20400;-84
2024/01/03 08:19:32;;;;;;;10.70;2.50;;;9.00;99.90;;;;;;5011806;28;20040;-85
2024/01/03 08:22:05;;;;;;;15.35;2.67;;;9.10;99.90;;;;;;5010172;28;20057;-83
2024/01/03 08:24:30;;;;;;;11.07;2.13;;;9.30;99.90;;;;;;5024115;28;20091;-83
2024/01/03 08:26:57;;;;;;;10.88;2.42;;;9.00;99.90;;;;;;5007728;28;20060;-82
2024/01/03 08:29:23;;;;;;;10.88;2.22;;;8.90;99.90;;;;;;5038131;28;20045;-82
2024/01/03 08:31:49;;;;;;;15.68;2.35;;;8.80;99.90;;;;;;5011165;28;20095;-82
2024/01/03 08:34:15;;;;;;;6.90;1.80;;;8.80;99.90;;;;;;5012239;28;20041;-85
2024/01/03 08:36:42;;;;;;;10.55;2.30;;;8.70;99.90;;;;;;5011663;28;20103;-85
2024/01/03 08:39:08;;;;;;;8.88;1.70;;;8.70;99.90;;;;;;5011543;28;20403;-85
2024/01/03 08:41:35;;;;;;;9.63;1.77;;;8.70;99.90;;;;;;5011374;28;20179;-85
2024/01/03 08:44:02;;;;;;;8.65;2.05;;;8.70;99.90;;;;;;5018547;28;20103;-87
2024/01/03 08:46:32;;;;;;;8.43;1.63;;;8.70;99.90;;;;;;5018452;28;20052;-83
2024/01/03 08:48:58;;;;;;;8.48;1.70;;;8.70;99.90;;;;;;5028458;28;20053;-83
2024/01/03 08:51:24;;;;;;;4.97;1.60;;;8.70;99.90;;;;;;5027755;28;20411;-82
2024/01/03 08:53:50;;;;;;;7.78;2.00;;;8.80;99.90;;;;;;5028443;28;20049;-84
2024/01/03 08:56:17;;;;;;;5.22;1.52;;;8.80;99.90;;;;;;5028448;28;20042;-84
2024/01/03 08:58:43;;;;;;;12.65;2.35;;;8.80;99.90;;;;;;4994314;28;20060;-83
2024/01/03 09:01:16;;;;;;;11.18;1.70;;;9.30;99.90;;;;;;5021112;28;20051;-83
2024/01/03 09:03:46;;;;;;;7.78;1.80;;;9.00;99.90;;;;;;5031153;28;20048;-84
2024/01/03 09:06:19;;;;;;;8.60;1.85;;;9.00;99.90;;;;;;5046982;28;20064;-84
2024/01/03 09:08:50;;;;;;;7.43;2.05;;;9.10;99.90;;;;;;5017198;28;20041;-84
2024/01/03 09:11:16;;;;;;;10.82;2.00;;;9.10;99.90;;;;;;5010209;28;20049;-84
2024/01/03 09:13:42;;;;;;;11.00;2.20;;;9.10;99.90;;;;;;5010296;28;20425;-84
2024/01/03 09:16:10;;;;;;;13.32;2.30;;;9.20;99.90;;;;;;5009796;28;20096;-84
2024/01/03 09:18:36;;;;;;;11.80;2.10;;;9.40;99.90;;;;;;5010331;28;20526;-85
2024/01/03 09:21:03;;;;;;;11.90;2.50;;;9.40;99.90;;;;;;5010419;28;20051;-84
2024/01/03 09:23:29;;;;;;;14.80;2.38;;;9.20;99.90;;;;;;5021488;28;20111;-84
2024/01/03 09:25:55;;;;;;;12.10;2.25;;;9.20;99.90;;;;;;5030251;28;20141;-83
2024/01/03 09:28:22;;;;;;;12.35;2.65;;;9.20;99.90;;;;;;5030134;28;20139;-84
2024/01/03 09:30:48;;;;;;;14.10;2.78;;;9.40;99.90;;;;;;5013850;28;20572;-84
2024/01/03 09:33:13;;;;;;;14.45;2.85;;;9.20;99.90;;;;;;5046377;28;20140;-84
2024/01/03 09:35:42;;;;;;;13.35;2.70;;;9.30;99.90;;;;;;5046755;28;20426;-84
2024/01/03 09:38:07;;;;;;;15.18;2.67;;;9.30;99.90;;;;;;5012585;28;20811;-83
2024/01/03 09:40:34;;;;;;;14.10;2.83;;;9.30;99.90;;;;;;5025333;28;20103;-84
2024/01/03 09:43:04;;;;;;;14.25;2.53;;;9.30;99.90;;;;;;5026873;28;20056;-84
2024/01/03 09:45:31;;;;;;;11.70;2.17;;;9.40;99.90;;;;;;5010017;28;20103;-82
2024/01/03 09:47:57;;;;;;;15.52;2.88;;;9.30;99.90;;;;;;5010404;28;20127;-83
2024/01/03 09:50:23;;;;;;;12.90;2.22;;;9.40;99.90;;;;;;5026800;28;20048;-83
2024/01/03 09:52:49;;;;;;;12.40;2.40;;;9.50;99.90;;;;;;5027611;28;20783;-84
2024/01/03 09:55:16;;;;;;;17.23;3.30;;;9.50;99.90;;;;;;4992161;28;20054;-82
2024/01/03 09:57:43;;;;;;;14.18;2.30;;;9.60;99.90;;;;;;5038095;28;20045;-82
2024/01/03 10:00:09;;;;;;;11.45;2.75;;;9.60;99.90;;;;;;5048003;28;20395;-81
2024/01/03 10:02:38;;;;;;;11.45;2.40;;;9.70;99.90;;;;;;5011090;28;20053;-82
2024/01/03 10:05:04;;;;;;;11.68;2.05;;;9.80;99.90;;;;;;5026611;28;20148;-82
2024/01/03 10:07:34;;;;;;;13.48;2.60;;;10.00;99.90;;;;;;5027534;28;20191;-81
2024/01/03 10:10:00;;;;;;;14.65;2.40;;;10.50;99.90;;;;;;5028029;28;20049;-81
2024/01/03 10:12:32;;;;;;;12.07;2.05;;;10.10;99.90;;;;;;5004397;28;20500;-81
2024/01/03 10:15:16;;;;;;;9.05;2.25;;;10.20;99.90;;;;;;4993516;28;20459;-81
2024/01/03 10:17:46;;;;;;;10.73;2.40;;;10.10;99.90;;;;;;5010680;28;20392;-81
2024/01/03 10:20:39;;;;;;;8.30;1.90;;;10.10;99.90;;;;;;5027703;28;20045;-81
2024/01/03 10:23:12;;;;;;;12.43;1.90;;;10.10;99.90;;;;;;5022840;28;20049;-81
2024/01/03 10:25:40;;;;;;;10.50;1.98;;;9.90;99.90;;;;;;5010109;28;20133;-81
2024/01/03 10:28:08;;;;;;;14.93;2.10;;;9.90;99.90;;;;;;5012419;28;20126;-81
2024/01/03 10:30:34;;;;;;;9.23;2.58;;;9.80;99.90;;;;;;5041968;28;20037;-82
2024/01/03 10:33:05;;;;;;;9.10;1.92;;;9.80;99.90;;;;;;5031360;28;20526;-85
2024/01/03 10:35:33;;;;;;;12.87;2.40;;;9.70;99.90;;;;;;4997144;28;20076;-80
2024/01/03 10:38:01;;;;;;;12.00;2.28;;;9.70;99.90;;;;;;4998098;28;20057;-86
2024/01/03 10:40:31;;;;;;;18.08;2.72;;;9.70;99.90;;;;;;5011514;28;20048;-85
2024/01/03 10:42:58;;;;;;;12.07;2.53;;;9.60;99.90;;;;;;5038679;28;20053;-84
2024/01/03 10:45:24;;;;;;;10.88;2.55;;;9.50;99.90;;;;;;5030022;28;20090;-84
2024/01/03 10:47:51;;;;;;;10.20;2.30;;;9.60;99.90;;;;;;5011993;28;20061;-83
2024/01/03 10:50:18;;;;;;;12.05;2.88;;;9.50;99.90;;;;;;4995852;28;20124;-84
2024/01/03 10:52:44;;;;;;;11.70;2.78;;;9.60;99.90;;;;;;5012741;28;20052;-84
2024/01/03 10:55:24;;;;;;;13.70;2.40;;;9.60;99.90;;;;;;5014024;28;20053;-83
2024/01/03 10:57:54;;;;;;;10.95;2.75;;;9.60;99.90;;;;;;5013576;28;20049;-84
2024/01/03 11:01:00;;;;;;;16.42;3.30;;;9.60;99.90;;;;;;4978407;28;20862;-85
2024/01/03 11:03:35;;;;;;;12.35;2.20;;;9.60;99.90;;;;;;4971300;28;20046;-84
2024/01/03 11:06:24;;;;;;;11.90;2.45;;;9.70;99.90;;;;;;5009871;28;20060;-83
2024/01/03 11:08:53;;;;;;;11.18;2.53;;;9.70;99.90;;;;;;5036317;28;20052;-84
2024/01/03 11:11:33;;;;;;;10.30;2.70;;;10.10;99.90;;;;;;5007443;28;20491;-83
2024/01/03 11:14:35;;;;;;;14.15;2.40;;;9.90;99.90;;;;;;5005630;28;20053;-87
2024/01/03 11:17:13;;;;;;;20.92;2.88;;;9.90;99.90;;;;;;5002477;28;20107;-83
2024/01/03 11:19:41;;;;;;;15.82;2.40;;;9.90;99.90;;;;;;5015934;28;20458;-84
2024/01/03 11:22:07;;;;;;;19.15;3.95;;;9.80;99.90;;;;;;4992239;28;20829;-85
2024/01/03 11:24:33;;;;;;;15.80;3.20;;;9.80;99.90;;;;;;5014959;28;20048;-86
2024/01/03 11:27:03;;;;;;;16.40;2.80;;;9.80;99.90;;;;;;5017029;28;20045;-85
2024/01/03 11:29:35;;;;;;;14.77;3.60;;;9.80;99.90;;;;;;5018844;28;20049;-85
2024/01/03 11:32:04;;;;;;;13.50;2.75;;;9.80;99.90;;;;;;5032036;28;20502;-84
2024/01/03 11:34:44;;;;;;;18.75;3.70;;;9.80;99.90;;;;;;5010661;28;20046;-85
2024/01/03 11:37:12;;;;;;;17.67;3.80;;;9.70;99.90;;;;;;5011630;28;20391;-85
2024/01/03 11:39:43;;;;;;;16.80;3.13;;;9.80;99.90;;;;;;5012052;28;20080;-88
2024/01/03 11:42:16;;;;;;;22.10;3.67;;;9.80;99.90;;;;;;4950822;28;20862;-86
2024/01/03 11:44:42;;;;;;;17.02;3.60;;;9.90;99.90;;;;;;5008461;28;20101;-84
2024/01/03 11:47:08;;;;;;;19.42;4.10;;;9.80;99.90;;;;;;5027592;28;20060;-85
2024/01/03 11:49:33;;;;;;;15.48;2.97;;;9.80;99.90;;;;;;5028501;28;20038;-83
2024/01/03 11:51:59;;;;;;;18.02;3.03;;;9.80;99.90;;;;;;5011597;28;20049;-85
2024/01/03 11:54:25;;;;;;;13.23;3.05;;;9.70;99.90;;;;;;5010459;28;20057;-84
2024/01/03 11:56:53;;;;;;;18.10;3.53;;;9.80;99.90;;;;;;5012130;28;20064;-86
2024/01/03 11:59:22;;;;;;;16.17;3.03;;;9.90;99.90;;;;;;4994847;28;20060;-85
2024/01/03 12:01:58;;;;;;;14.07;2.65;;;9.80;99.90;;;;;;4989134;28;20268;-85
2024/01/03 12:04:24;;;;;;;16.60;3.35;;;9.80;99.90;;;;;;5007817;28;20487;-85
2024/01/03 12:06:50;;;;;;;13.90;2.47;;;9.90;99.90;;;;;;5011608;28;20049;-85
2024/01/03 12:09:16;;;;;;;11.13;2.10;;;10.10;99.90;;;;;;4995216;28;20118;-83
2024/01/03 12:11:42;;;;;;;10.02;2.28;;;9.90;99.90;;;;;;4987934;28;20045;-85
2024/01/03 12:14:08;;;;;;;16.38;2.90;;;10.20;99.90;;;;;;5001699;28;20045;-85
2024/01/03 12:16:47;;;;;;;10.85;2.75;;;10.10;99.90;;;;;;4997061;28;20506;-83
2024/01/03 12:19:26;;;;;;;15.30;3.00;;;10.10;99.90;;;;;;5027716;28;20080;-83
2024/01/03 12:21:57;;;;;;;10.55;2.25;;;10.00;99.90;;;;;;5001113;28;20128;-83
2024/01/03 12:24:40;;;;;;;14.00;2.55;;;10.00;99.90;;;;;;5010359;28;20093;-83
2024/01/03 12:27:06;;;;;;;13.93;2.58;;;10.00;99.90;;;;;;4976882;28;20593;-83
2024/01/03 12:29:36;;;;;;;11.13;2.05;;;9.90;99.90;;;;;;5027885;28;20120;-84
2024/01/03 12:32:12;;;;;;;18.33;2.67;;;10.00;99.90;;;;;;5015058;28;20099;-84
2024/01/03 12:34:40;;;;;;;16.27;2.58;;;9.90;99.90;;;;;;5021092;28;20041;-84
2024/01/03 12:37:06;;;;;;;10.07;2.50;;;9.80;99.90;;;;;;4998321;28;20047;-84
2024/01/03 12:39:38;;;;;;;13.07;2.60;;;10.00;99.90;;;;;;5028160;28;20538;-84
2024/01/03 12:42:04;;;;;;;16.77;1.95;;;9.90;99.90;;;;;;5019046;28;20038;-84
2024/01/03 12:44:31;;;;;;;11.13;1.95;;;9.90;99.90;;;;;;5008208;28;20120;-82
2024/01/03 12:46:57;;;;;;;11.48;2.30;;;9.90;99.90;;;;;;4991002;28;20563;-81
2024/01/03 12:49:23;;;;;;;9.07;2.60;;;9.90;99.90;;;;;;5010331;28;20136;-83
2024/01/03 12:51:48;;;;;;;11.50;1.85;;;10.00;99.90;;;;;;5026307;28;20080;-83